Time;durP1;ratioP1;P1;durP2;ratioP2;P2;SDS_P1;SDS_P2;PMS_P1;PMS_P2;Temp;Humidity;BMP_temperature;BMP_pressure;BME280_temperature;BME280_humidity;BME280_pressure;Samples;Min_cycle;Max_cycle;Signal;HPM_P1;HPM_P2
2022/05/15 00:02:22;;;;;;;69.97;13.35;;;;;;;13.59;99.85;101675.53;4979819;28;20043;-79
2022/05/15 00:04:49;;;;;;;58.45;12.70;;;;;;;13.57;99.38;101674.75;4993260;28;20517;-80
2022/05/15 00:07:15;;;;;;;49.72;10.90;;;;;;;13.64;98.47;101674.28;4994332;28;20043;-78
2022/05/15 00:09:41;;;;;;;61.25;11.32;;;;;;;13.51;99.64;101678.00;4992329;28;20039;-80
2022/05/15 00:12:07;;;;;;;68.07;11.63;;;;;;;13.52;98.60;101679.75;4956410;28;21561;-78
2022/05/15 00:14:34;;;;;;;56.22;13.38;;;;;;;13.47;99.86;101679.22;4970034;28;20038;-80
2022/05/15 00:17:00;;;;;;;69.80;12.25;;;;;;;13.52;99.93;101684.38;4994291;28;20415;-78
2022/05/15 00:19:27;;;;;;;59.38;11.02;;;;;;;13.34;100.00;101676.56;4995619;28;20085;-79
2022/05/15 00:21:52;;;;;;;56.42;11.48;;;;;;;13.38;100.00;101682.69;4997047;28;20034;-79
2022/05/15 00:24:20;;;;;;;51.22;12.88;;;;;;;13.37;100.00;101668.06;4996827;28;20045;-80
2022/05/15 00:26:45;;;;;;;66.55;12.10;;;;;;;13.39;100.00;101679.81;4994799;28;20134;-81
2022/05/15 00:29:11;;;;;;;79.32;14.18;;;;;;;13.32;100.00;101670.31;4982592;28;20479;-78
2022/05/15 00:31:36;;;;;;;62.75;12.13;;;;;;;13.22;100.00;101666.50;4998537;28;20065;-80
2022/05/15 00:34:03;;;;;;;80.25;13.73;;;;;;;13.33;100.00;101674.81;4997863;28;20057;-80
2022/05/15 00:36:28;;;;;;;59.97;12.27;;;;;;;13.30;100.00;101672.28;4989902;28;20043;-79
2022/05/15 00:38:54;;;;;;;75.30;11.55;;;;;;;13.29;100.00;101672.38;4978838;28;20042;-81
2022/05/15 00:41:20;;;;;;;77.05;14.20;;;;;;;13.31;100.00;101673.13;4988307;28;20034;-79
2022/05/15 00:43:47;;;;;;;82.10;13.50;;;;;;;13.15;100.00;101674.34;4994108;28;20038;-80
2022/05/15 00:46:28;;;;;;;86.53;13.35;;;;;;;13.20;100.00;101665.75;4985853;28;20035;-80
2022/05/15 00:48:56;;;;;;;65.22;14.13;;;;;;;13.03;100.00;101643.13;4994397;28;20121;-80
2022/05/15 00:51:23;;;;;;;89.93;12.35;;;;;;;13.23;100.00;101668.22;4997579;28;20053;-80
2022/05/15 00:53:54;;;;;;;70.85;13.82;;;;;;;13.20;100.00;101668.50;4995733;28;20046;-78
2022/05/15 00:56:23;;;;;;;88.65;13.43;;;;;;;13.08;100.00;101662.03;4993487;28;20470;-79
2022/05/15 00:58:56;;;;;;;69.50;14.40;;;;;;;13.05;100.00;101665.00;5015393;28;20042;-80
2022/05/15 01:01:22;;;;;;;86.85;14.85;;;;;;;12.96;100.00;101665.75;4983236;28;20038;-79
2022/05/15 01:03:47;;;;;;;60.22;13.45;;;;;;;13.02;100.00;101660.66;4998685;28;20061;-80
2022/05/15 01:06:13;;;;;;;71.68;12.98;;;;;;;13.01;100.00;101660.75;4975786;28;20522;-78
2022/05/15 01:08:39;;;;;;;63.08;13.50;;;;;;;13.04;100.00;101664.16;4997709;28;20042;-78
2022/05/15 01:11:11;;;;;;;69.47;14.13;;;;;;;12.99;100.00;101654.50;4997621;28;20114;-79
2022/05/15 01:13:40;;;;;;;77.53;14.07;;;;;;;12.96;100.00;101660.25;4998594;28;20045;-80
2022/05/15 01:16:07;;;;;;;68.60;14.55;;;;;;;12.97;100.00;101671.13;5011216;28;20038;-79
2022/05/15 01:18:35;;;;;;;74.50;13.35;;;;;;;12.88;100.00;101666.31;4974502;28;20050;-80
2022/05/15 01:21:16;;;;;;;86.13;15.52;;;;;;;12.85;100.00;101666.53;4996375;28;20498;-80
2022/05/15 01:23:42;;;;;;;64.35;14.95;;;;;;;12.84;100.00;101662.06;4995132;28;20105;-79
2022/05/15 01:26:08;;;;;;;82.15;14.65;;;;;;;12.68;100.00;101660.44;5009763;28;20042;-79
2022/05/15 01:28:33;;;;;;;74.03;14.05;;;;;;;12.78;100.00;101665.25;4997013;28;20077;-81
2022/05/15 01:30:59;;;;;;;67.25;14.15;;;;;;;12.76;100.00;101665.38;4996745;28;20089;-79
2022/05/15 01:33:25;;;;;;;78.30;14.70;;;;;;;12.76;100.00;101661.75;4996893;28;20045;-78
2022/05/15 01:35:51;;;;;;;72.95;14.18;;;;;;;12.70;100.00;101663.09;4946876;28;20502;-78
2022/05/15 01:38:18;;;;;;;73.35;14.40;;;;;;;12.76;100.00;101673.63;4994111;28;20035;-78
2022/05/15 01:40:45;;;;;;;71.60;15.30;;;;;;;12.70;100.00;101668.56;4985838;28;20495;-78
2022/05/15 01:43:11;;;;;;;72.25;13.88;;;;;;;12.63;100.00;101662.66;4992146;28;20030;-78
2022/05/15 01:45:37;;;;;;;70.30;15.73;;;;;;;12.57;100.00;101670.50;4996246;28;20401;-79
2022/05/15 01:48:03;;;;;;;73.07;16.55;;;;;;;12.49;100.00;101660.97;4996345;28;20045;-80
2022/05/15 01:50:28;;;;;;;83.00;14.25;;;;;;;12.45;100.00;101664.06;4988332;28;20063;-80
2022/05/15 01:52:54;;;;;;;82.70;14.32;;;;;;;12.32;100.00;101659.44;4979835;28;20049;-79
2022/05/15 01:55:20;;;;;;;83.22;14.90;;;;;;;12.34;100.00;101663.97;4960075;28;20041;-79
2022/05/15 01:57:45;;;;;;;88.13;14.43;;;;;;;12.37;100.00;101656.38;4993078;28;20086;-80
2022/05/15 02:00:14;;;;;;;87.30;13.95;;;;;;;12.47;100.00;101668.41;4979316;28;20045;-78
2022/05/15 02:02:40;;;;;;;86.32;14.68;;;;;;;12.51;100.00;101663.59;4998383;28;20157;-79
2022/05/15 02:05:07;;;;;;;74.65;14.77;;;;;;;12.32;100.00;101659.44;4978600;28;20034;-80
2022/05/15 02:07:33;;;;;;;76.72;14.05;;;;;;;12.25;100.00;101668.28;4978183;28;20026;-77
2022/05/15 02:09:59;;;;;;;81.82;16.08;;;;;;;12.31;100.00;101665.97;5008765;28;20026;-79
2022/05/15 02:12:25;;;;;;;77.25;15.65;;;;;;;12.34;100.00;101666.72;5012997;28;20057;-78
2022/05/15 02:14:51;;;;;;;78.05;15.55;;;;;;;12.22;100.00;101658.38;4994512;28;20121;-79
2022/05/15 02:17:16;;;;;;;90.53;14.57;;;;;;;12.10;100.00;101659.25;4963465;28;20120;-79
2022/05/15 02:19:42;;;;;;;80.18;14.68;;;;;;;12.14;100.00;101658.94;4963774;28;20046;-79
2022/05/15 02:22:07;;;;;;;89.47;17.05;;;;;;;12.20;100.00;101657.63;4980472;28;20035;-78
2022/05/15 02:24:33;;;;;;;75.93;15.07;;;;;;;12.07;100.00;101651.28;4991711;28;20093;-81
2022/05/15 02:26:58;;;;;;;97.72;14.88;;;;;;;12.02;100.00;101659.84;4993038;28;20050;-79
2022/05/15 02:29:24;;;;;;;73.47;15.48;;;;;;;12.06;100.00;101655.88;4994880;28;20038;-79
2022/05/15 02:31:49;;;;;;;76.43;13.70;;;;;;;11.98;100.00;101646.44;4994246;28;20552;-79
2022/05/15 02:34:15;;;;;;;77.47;15.70;;;;;;;11.85;100.00;101625.31;4996056;28;20099;-79
2022/05/15 02:36:41;;;;;;;73.53;14.52;;;;;;;11.97;100.00;101647.41;4994784;28;20089;-78
2022/05/15 02:39:06;;;;;;;77.13;14.30;;;;;;;11.84;100.00;101640.06;4992880;28;20046;-80
2022/05/15 02:41:33;;;;;;;93.15;16.20;;;;;;;11.82;100.00;101638.41;4979784;28;20035;-78
2022/05/15 02:43:59;;;;;;;75.95;15.43;;;;;;;11.83;100.00;101652.00;4995327;28;20041;-79
2022/05/15 02:46:25;;;;;;;71.57;15.00;;;;;;;11.84;100.00;101651.03;4995114;28;20026;-78
2022/05/15 02:51:34;;;;;;;79.10;15.35;;;;;;;11.71;100.00;101658.38;4995566;28;20045;-78
2022/05/15 02:54:00;;;;;;;62.38;14.75;;;;;;;11.78;100.00;101656.94;4973191;28;20043;-80
2022/05/15 02:56:30;;;;;;;74.32;14.50;;;;;;;11.74;100.00;101642.59;4979390;28;20049;-80
2022/05/15 02:58:56;;;;;;;71.25;15.48;;;;;;;11.74;100.00;101647.16;4995036;28;20478;-78
2022/05/15 03:01:22;;;;;;;69.88;14.73;;;;;;;11.64;100.00;101646.97;4995920;28;20105;-79
2022/05/15 03:03:48;;;;;;;77.85;14.82;;;;;;;11.66;100.00;101641.34;4986482;28;20079;-79
2022/05/15 03:06:14;;;;;;;77.45;14.90;;;;;;;11.57;100.00;101646.50;4976793;28;20038;-78
2022/05/15 03:08:43;;;;;;;80.57;15.25;;;;;;;11.61;100.00;101640.81;5006225;28;20122;-79
2022/05/15 03:11:09;;;;;;;95.63;15.35;;;;;;;11.59;100.00;101643.66;4995841;28;20031;-79
2022/05/15 03:13:35;;;;;;;79.43;15.90;;;;;;;11.45;100.00;101630.94;4996044;28;22247;-80
2022/05/15 03:16:02;;;;;;;77.03;17.48;;;;;;;11.55;100.00;101643.00;4965448;28;20034;-80
2022/05/15 03:18:27;;;;;;;71.00;14.25;;;;;;;11.50;100.00;101634.22;4978909;28;20092;-80
2022/05/15 03:20:53;;;;;;;107.15;18.73;;;;;;;11.53;100.00;101628.53;4978153;28;20047;-80
2022/05/15 03:23:18;;;;;;;78.85;17.52;;;;;;;11.52;100.00;101632.25;4962715;28;20038;-78
2022/05/15 03:25:44;;;;;;;77.15;15.48;;;;;;;11.49;100.00;101634.34;4994174;28;20085;-80
2022/05/15 03:28:11;;;;;;;75.22;14.38;;;;;;;11.47;100.00;101634.44;4976872;28;20553;-80
2022/05/15 03:30:38;;;;;;;73.43;14.98;;;;;;;11.36;100.00;101634.31;4972318;28;20397;-79
2022/05/15 03:33:04;;;;;;;90.43;17.33;;;;;;;11.44;100.00;101625.56;4994492;28;20038;-79
2022/05/15 03:35:30;;;;;;;107.38;16.35;;;;;;;11.32;100.00;101632.78;4958400;28;20406;-79
2022/05/15 03:37:56;;;;;;;78.90;13.68;;;;;;;11.31;100.00;101626.41;4961375;28;20052;-79
2022/05/15 03:40:22;;;;;;;68.82;15.25;;;;;;;11.28;100.00;101612.94;4961424;28;20402;-79
2022/05/15 03:42:47;;;;;;;58.17;12.88;;;;;;;11.35;100.00;101625.22;4987651;28;21676;-80
2022/05/15 03:45:13;;;;;;;88.65;14.38;;;;;;;11.29;100.00;101620.16;4990997;28;20046;-78
2022/05/15 03:47:50;;;;;;;77.85;13.68;;;;;;;11.28;100.00;101623.00;4979659;28;20046;-79
2022/05/15 03:50:17;;;;;;;108.65;15.18;;;;;;;11.25;100.00;101624.13;4992689;28;20065;-78
2022/05/15 03:52:43;;;;;;;68.18;13.82;;;;;;;11.24;100.00;101625.09;4992488;28;20038;-79
2022/05/15 03:55:10;;;;;;;74.35;15.15;;;;;;;11.25;100.00;101625.94;4989197;28;20042;-78
2022/05/15 03:57:36;;;;;;;65.20;12.50;;;;;;;11.18;100.00;101629.16;4994297;28;20085;-79
2022/05/15 04:00:04;;;;;;;60.08;13.25;;;;;;;11.22;100.00;101627.94;4993484;28;20026;-78
2022/05/15 04:02:30;;;;;;;61.38;13.75;;;;;;;11.16;100.00;101620.13;5005469;28;20125;-79
2022/05/15 04:04:56;;;;;;;57.20;13.65;;;;;;;11.28;100.00;101623.91;4992845;28;20034;-79
2022/05/15 04:07:22;;;;;;;80.57;13.80;;;;;;;11.20;100.00;101620.81;4958335;28;20031;-80
2022/05/15 04:09:49;;;;;;;72.20;13.57;;;;;;;11.22;100.00;101622.44;4983343;28;20038;-79
2022/05/15 04:12:15;;;;;;;63.22;12.82;;;;;;;11.25;100.00;101623.22;4992724;28;20057;-79
2022/05/15 04:14:41;;;;;;;62.25;12.73;;;;;;;11.16;100.00;101620.13;4996049;28;20041;-77
2022/05/15 04:17:06;;;;;;;56.13;11.60;;;;;;;11.25;100.00;101620.47;4998122;28;20038;-79
2022/05/15 04:19:34;;;;;;;52.30;11.48;;;;;;;11.24;100.00;101622.34;4994345;28;20045;-78
2022/05/15 04:22:03;;;;;;;62.75;13.02;;;;;;;11.33;100.00;101626.28;4976461;28;20532;-78
2022/05/15 04:24:34;;;;;;;74.22;12.52;;;;;;;11.31;100.00;101636.50;4982696;28;20042;-78
2022/05/15 04:27:00;;;;;;;66.03;12.27;;;;;;;11.34;100.00;101639.91;4974265;28;20062;-79
2022/05/15 04:29:26;;;;;;;55.00;12.75;;;;;;;11.37;100.00;101642.44;4990971;28;20083;-79
2022/05/15 04:32:01;;;;;;;61.78;11.75;;;;;;;11.29;100.00;101647.56;4990857;28;20038;-78
2022/05/15 04:34:28;;;;;;;65.03;12.68;;;;;;;11.34;100.00;101653.59;4963518;28;20548;-78
2022/05/15 04:37:14;;;;;;;62.17;11.77;;;;;;;11.42;100.00;101649.47;4979717;28;20034;-77
2022/05/15 04:39:39;;;;;;;56.45;10.68;;;;;;;11.48;100.00;101647.19;4990228;28;20047;-76
2022/05/15 04:42:06;;;;;;;43.65;11.90;;;;;;;11.49;100.00;101654.41;4958657;28;20092;-78
2022/05/15 04:44:31;;;;;;;40.05;10.85;;;;;;;11.50;100.00;101644.31;4990366;28;20066;-79
2022/05/15 04:46:57;;;;;;;60.70;11.45;;;;;;;11.60;100.00;101650.91;4990412;28;20038;-78
2022/05/15 04:49:23;;;;;;;53.75;10.68;;;;;;;11.66;100.00;101647.75;4995680;28;20117;-78
2022/05/15 04:51:48;;;;;;;57.05;11.63;;;;;;;11.74;100.00;101639.84;4986914;28;20047;-80
2022/05/15 04:54:14;;;;;;;46.67;11.75;;;;;;;11.80;100.00;101644.00;4987479;28;20042;-79
2022/05/15 04:56:39;;;;;;;51.50;11.15;;;;;;;11.84;100.00;101639.16;4995591;28;20101;-78
2022/05/15 04:59:05;;;;;;;40.08;10.70;;;;;;;12.01;100.00;101647.09;4995407;28;20458;-77
2022/05/15 05:01:31;;;;;;;51.97;10.43;;;;;;;12.06;100.00;101646.75;4977624;28;20089;-78
2022/05/15 05:03:58;;;;;;;48.17;10.13;;;;;;;11.93;100.00;101642.16;5004985;28;20039;-78
2022/05/15 05:06:25;;;;;;;37.33;10.50;;;;;;;11.95;100.00;101642.03;5002265;28;20463;-77
2022/05/15 05:08:51;;;;;;;59.28;11.60;;;;;;;11.99;100.00;101629.88;4993947;28;20034;-79
2022/05/15 05:11:17;;;;;;;44.63;10.93;;;;;;;12.12;100.00;101638.97;4992264;28;20038;-78
2022/05/15 05:13:45;;;;;;;46.30;10.93;;;;;;;12.26;100.00;101639.81;4989933;28;20130;-79
2022/05/15 05:16:12;;;;;;;52.88;11.18;;;;;;;12.38;100.00;101641.66;4991872;28;20501;-77
2022/05/15 05:18:38;;;;;;;44.85;11.35;;;;;;;12.59;100.00;101652.03;4987928;28;20030;-77
2022/05/15 05:21:13;;;;;;;40.55;10.85;;;;;;;12.91;100.00;101648.72;4992008;28;20046;-78
2022/05/15 05:23:38;;;;;;;47.92;12.35;;;;;;;13.13;100.00;101645.19;4957470;28;20070;-77
2022/05/15 05:26:03;;;;;;;52.65;12.73;;;;;;;13.44;100.00;101645.59;4972774;28;20049;-78
2022/05/15 05:28:30;;;;;;;44.47;10.25;;;;;;;13.78;100.00;101644.66;4991770;28;20498;-79
2022/05/15 05:30:56;;;;;;;46.75;11.30;;;;;;;13.83;100.00;101654.44;4971905;28;20070;-78
2022/05/15 05:33:22;;;;;;;50.00;11.75;;;;;;;14.13;100.00;101649.19;4987463;28;20042;-77
2022/05/15 05:35:49;;;;;;;44.92;11.85;;;;;;;14.31;100.00;101654.19;4992086;28;20113;-79
2022/05/15 05:38:14;;;;;;;47.78;11.77;;;;;;;14.63;100.00;101646.03;5005222;28;20116;-79
2022/05/15 05:40:40;;;;;;;58.72;11.68;;;;;;;14.46;100.00;101652.03;4994930;28;20030;-78
2022/05/15 05:43:05;;;;;;;38.78;11.07;;;;;;;14.94;100.00;101657.25;4976187;28;20058;-78
2022/05/15 05:45:31;;;;;;;44.40;12.35;;;;;;;15.02;100.00;101651.94;4987443;28;20100;-77
2022/05/15 05:47:57;;;;;;;42.00;11.68;;;;;;;15.00;100.00;101648.44;4971193;28;20034;-77
2022/05/15 05:50:25;;;;;;;43.28;12.18;;;;;;;15.42;98.71;101653.16;4975009;28;20039;-77
2022/05/15 05:52:51;;;;;;;41.00;11.05;;;;;;;15.83;96.80;101647.78;4985674;28;20039;-79
2022/05/15 05:55:20;;;;;;;38.00;12.15;;;;;;;15.73;98.47;101656.84;4987075;28;20040;-78
2022/05/15 05:57:46;;;;;;;35.38;12.23;;;;;;;16.08;96.15;101640.94;4981166;28;20066;-78
2022/05/15 06:00:17;;;;;;;50.72;11.73;;;;;;;16.47;92.21;101652.16;5000796;28;20129;-78
2022/05/15 06:02:43;;;;;;;39.17;11.27;;;;;;;16.53;93.51;101652.47;4990832;28;20054;-78
2022/05/15 06:05:09;;;;;;;39.00;12.63;;;;;;;16.35;93.88;101655.03;4976163;28;20039;-78
2022/05/15 06:07:34;;;;;;;49.95;11.90;;;;;;;16.87;92.75;101662.31;4976663;28;20034;-78
2022/05/15 06:10:02;;;;;;;41.05;11.85;;;;;;;17.44;88.74;101662.50;4949235;28;20030;-78
2022/05/15 06:12:28;;;;;;;49.33;12.40;;;;;;;17.45;89.06;101654.06;4995162;28;20042;-77
2022/05/15 06:14:54;;;;;;;33.30;11.95;;;;;;;17.71;87.01;101653.44;5005813;28;20077;-77
2022/05/15 06:17:25;;;;;;;39.35;12.25;;;;;;;17.58;88.07;101656.50;4989791;28;20078;-78
2022/05/15 06:19:51;;;;;;;46.20;13.32;;;;;;;17.72;86.37;101654.31;4983597;28;20031;-80
2022/05/15 06:22:17;;;;;;;41.63;12.27;;;;;;;18.35;83.18;101646.25;5008303;28;20038;-78
2022/05/15 06:24:44;;;;;;;40.72;13.00;;;;;;;18.85;81.19;101652.44;5007909;28;20080;-77
2022/05/15 06:27:11;;;;;;;39.45;12.57;;;;;;;19.10;78.36;101650.78;4982493;28;20062;-76
2022/05/15 06:29:41;;;;;;;35.47;12.75;;;;;;;19.31;76.82;101649.59;5001606;28;20050;-76
2022/05/15 06:32:07;;;;;;;44.28;13.27;;;;;;;19.51;75.54;101639.19;4983313;28;20118;-78
2022/05/15 06:34:34;;;;;;;42.13;13.07;;;;;;;19.41;79.34;101636.50;5000813;28;20447;-78
2022/05/15 06:36:59;;;;;;;45.53;13.68;;;;;;;18.96;80.07;101640.25;4976456;28;20070;-78
2022/05/15 06:39:25;;;;;;;38.38;13.15;;;;;;;19.18;78.87;101638.88;5004826;28;20038;-79
2022/05/15 06:41:56;;;;;;;40.95;14.10;;;;;;;19.12;80.44;101636.75;4966027;28;20054;-78
2022/05/15 06:44:22;;;;;;;39.90;13.23;;;;;;;19.58;76.48;101640.31;5006508;28;20069;-79
2022/05/15 06:46:48;;;;;;;36.42;13.77;;;;;;;19.38;77.61;101634.03;4993284;28;20092;-78
2022/05/15 06:49:14;;;;;;;46.28;15.45;;;;;;;19.58;75.60;101641.16;4990792;28;20482;-79
2022/05/15 06:51:41;;;;;;;37.05;12.95;;;;;;;20.09;74.08;101637.72;4990627;28;20524;-78
2022/05/15 06:54:07;;;;;;;30.25;12.75;;;;;;;19.65;74.81;101638.59;4984912;28;20247;-77
2022/05/15 06:59:17;;;;;;;44.35;12.90;;;;;;;20.24;74.28;101644.41;4991711;28;20100;-77
2022/05/15 07:01:43;;;;;;;39.75;14.10;;;;;;;20.29;74.63;101652.25;4969188;28;20829;-78
2022/05/15 07:04:09;;;;;;;46.85;15.48;;;;;;;20.55;72.33;101650.28;4982910;28;20058;-77
2022/05/15 07:06:34;;;;;;;37.30;13.77;;;;;;;20.86;68.88;101649.72;4969127;28;20042;-78
2022/05/15 07:09:00;;;;;;;44.53;12.57;;;;;;;21.45;66.77;101644.06;4984213;28;20038;-77
2022/05/15 07:11:28;;;;;;;33.05;13.07;;;;;;;21.11;68.26;101653.44;5004547;28;20031;-78
2022/05/15 07:13:54;;;;;;;35.80;12.32;;;;;;;21.39;65.20;101655.91;5005554;28;20026;-77
2022/05/15 07:16:19;;;;;;;42.22;13.52;;;;;;;21.58;66.26;101656.63;4992963;28;20045;-78
2022/05/15 07:18:45;;;;;;;38.38;15.07;;;;;;;21.43;65.94;101660.09;4974331;28;20126;-78
2022/05/15 07:21:11;;;;;;;35.92;13.40;;;;;;;21.55;64.68;101646.72;4967227;28;20042;-79
2022/05/15 07:23:37;;;;;;;38.58;14.18;;;;;;;21.59;65.43;101650.88;4993208;28;20089;-77
2022/05/15 07:26:03;;;;;;;39.03;13.55;;;;;;;22.11;65.04;101646.81;4985711;28;20414;-77
2022/05/15 07:28:29;;;;;;;40.05;13.70;;;;;;;22.10;65.19;101638.63;4983571;28;20054;-81
2022/05/15 07:30:56;;;;;;;39.80;14.05;;;;;;;22.29;62.89;101649.41;4977081;28;20042;-77
2022/05/15 07:33:24;;;;;;;52.17;13.18;;;;;;;22.57;62.53;101647.00;4960783;28;20093;-77
2022/05/15 07:35:50;;;;;;;40.33;13.55;;;;;;;22.75;60.61;101654.28;4987920;28;20053;-77
2022/05/15 07:38:16;;;;;;;46.38;13.77;;;;;;;22.67;61.57;101648.72;4989356;28;20086;-78
2022/05/15 07:40:45;;;;;;;39.97;15.15;;;;;;;22.75;61.81;101654.28;4993129;28;20042;-78
2022/05/15 07:43:12;;;;;;;40.08;14.15;;;;;;;23.48;58.28;101652.06;4991920;28;20045;-78
2022/05/15 07:45:38;;;;;;;42.10;13.02;;;;;;;23.35;59.97;101651.81;4987312;28;20026;-76
2022/05/15 07:48:04;;;;;;;34.65;12.95;;;;;;;23.55;57.59;101639.09;4980989;28;20038;-80
2022/05/15 07:50:30;;;;;;;50.90;15.20;;;;;;;23.00;59.59;101645.75;4984838;28;20407;-79
2022/05/15 07:52:56;;;;;;;50.50;17.30;;;;;;;23.70;57.44;101641.91;4975795;28;20027;-79
2022/05/15 07:55:22;;;;;;;36.28;13.70;;;;;;;23.83;57.38;101632.91;4986601;28;20059;-78
2022/05/15 07:57:48;;;;;;;33.83;12.85;;;;;;;24.55;53.58;101645.41;4964039;28;20104;-80
2022/05/15 08:00:14;;;;;;;68.97;14.98;;;;;;;24.08;55.93;101633.53;4986238;28;20026;-81
2022/05/15 08:02:40;;;;;;;40.67;13.45;;;;;;;24.35;55.46;101629.19;4987381;28;20050;-82
2022/05/15 08:08:02;;;;;;;37.78;12.27;;;;;;;24.72;54.62;101634.88;4982885;28;20061;-80
2022/05/15 08:10:34;;;;;;;61.58;13.68;;;;;;;24.63;53.41;101624.81;4965252;28;20026;-80
2022/05/15 08:12:59;;;;;;;48.70;12.73;;;;;;;25.14;51.74;101641.63;4998942;28;20494;-82
2022/05/15 08:15:25;;;;;;;40.10;12.02;;;;;;;24.91;53.38;101636.19;4974989;28;20050;-80
2022/05/15 08:17:51;;;;;;;66.15;12.80;;;;;;;25.22;51.48;101630.28;4965607;28;20048;-82
2022/05/15 08:25:46;;;;;;;38.33;9.85;;;;;;;26.24;46.70;101619.72;4992407;28;20039;-80
2022/05/15 08:28:13;;;;;;;36.03;10.85;;;;;;;26.15;45.48;101615.34;4996892;28;20133;-79
2022/05/15 08:30:39;;;;;;;27.77;9.63;;;;;;;25.60;45.83;101615.13;4997881;28;20101;-80
2022/05/15 08:33:08;;;;;;;31.13;9.88;;;;;;;25.58;44.75;101614.44;4988976;28;20082;-80
2022/05/15 08:35:33;;;;;;;52.42;9.90;;;;;;;25.28;46.32;101609.84;4994319;28;20123;-80
2022/05/15 08:37:59;;;;;;;42.55;10.93;;;;;;;25.25;45.81;101612.16;5012191;28;20073;-81
2022/05/15 08:40:30;;;;;;;34.85;10.23;;;;;;;26.23;44.06;101610.41;4985455;28;20046;-81
2022/05/15 08:42:58;;;;;;;39.08;11.18;;;;;;;25.83;43.24;101601.72;5014122;28;20042;-80
2022/05/15 08:45:30;;;;;;;38.90;11.27;;;;;;;25.75;43.29;101609.44;4987533;28;20039;-78
2022/05/15 08:48:08;;;;;;;41.35;11.15;;;;;;;25.99;44.50;101594.06;4994251;28;20371;-78
2022/05/15 08:50:42;;;;;;;58.92;13.02;;;;;;;26.33;42.37;101587.56;4993982;28;20023;-80
2022/05/15 08:53:15;;;;;;;40.55;11.18;;;;;;;26.31;42.24;101583.25;5011441;28;20041;-80
2022/05/15 08:55:44;;;;;;;43.13;11.57;;;;;;;26.23;41.58;101584.28;4992870;28;20042;-78
2022/05/15 08:58:30;;;;;;;35.80;12.52;;;;;;;26.11;41.46;101577.53;4996657;28;20106;-80
2022/05/15 09:00:56;;;;;;;46.08;12.02;;;;;;;25.57;40.51;101577.13;4995082;28;20030;-79
2022/05/15 09:03:33;;;;;;;40.15;11.27;;;;;;;25.91;40.42;101580.16;4994456;28;20066;-79
2022/05/15 09:06:19;;;;;;;36.95;10.45;;;;;;;26.32;41.36;101579.38;5009472;28;20034;-80
2022/05/15 09:09:34;;;;;;;39.63;10.20;;;;;;;26.31;39.79;101570.06;4992803;28;20066;-81
2022/05/15 09:12:20;;;;;;;90.95;12.98;;;;;;;26.71;39.24;101573.09;4960302;28;20049;-79
2022/05/15 09:15:11;;;;;;;51.97;12.48;;;;;;;26.23;38.92;101571.09;4999722;28;20117;-83
2022/05/15 09:17:42;;;;;;;43.47;12.02;;;;;;;26.41;40.10;101570.53;5002518;28;20023;-81
2022/05/15 09:20:19;;;;;;;33.85;9.90;;;;;;;26.03;37.57;101571.00;4985621;28;20042;-81
2022/05/15 09:22:54;;;;;;;28.88;9.27;;;;;;;25.94;37.28;101585.38;4999089;28;20036;-81
2022/05/15 09:25:24;;;;;;;35.38;8.38;;;;;;;26.22;36.38;101582.56;4985612;28;20092;-81
2022/05/15 09:28:06;;;;;;;62.85;10.10;;;;;;;25.93;39.25;101592.94;4978300;28;20057;-80
2022/05/15 09:30:50;;;;;;;52.33;10.27;;;;;;;25.60;37.66;101587.09;5007884;28;20034;-79
2022/05/15 09:33:28;;;;;;;50.42;10.73;;;;;;;25.60;38.35;101579.53;4964805;28;20066;-79
2022/05/15 09:36:15;;;;;;;34.90;8.77;;;;;;;26.04;37.08;101578.38;5000735;28;20042;-78
2022/05/15 09:38:41;;;;;;;35.33;9.13;;;;;;;26.09;36.43;101574.94;4994839;28;20033;-81
2022/05/15 09:44:04;;;;;;;45.65;8.27;;;;;;;26.22;37.53;101571.34;4999642;28;20030;-80
2022/05/15 09:46:30;;;;;;;41.25;8.40;;;;;;;26.35;37.76;101565.78;4999177;28;20053;-80
2022/05/15 09:49:06;;;;;;;39.72;8.77;;;;;;;26.23;36.93;101576.72;4999806;28;20042;-79
2022/05/15 09:51:34;;;;;;;52.55;10.55;;;;;;;26.34;37.08;101566.00;4999118;28;20026;-81
2022/05/15 09:54:00;;;;;;;39.35;8.57;;;;;;;26.64;36.84;101551.66;4988291;28;20061;-80
2022/05/15 09:56:32;;;;;;;38.42;8.60;;;;;;;26.64;36.83;101555.31;4962514;28;20045;-80
2022/05/15 09:59:00;;;;;;;42.83;9.23;;;;;;;26.68;34.81;101565.09;4963257;28;20035;-81
2022/05/15 10:01:33;;;;;;;35.05;7.50;;;;;;;26.83;34.76;101550.00;4997983;28;20031;-80
2022/05/15 10:04:00;;;;;;;32.90;8.48;;;;;;;26.66;35.08;101553.19;4982234;28;20503;-80
2022/05/15 10:06:31;;;;;;;31.40;7.65;;;;;;;27.32;35.24;101552.47;4990163;28;20066;-80
2022/05/15 10:09:23;;;;;;;34.78;6.63;;;;;;;26.76;32.71;101555.56;4996219;28;20042;-81
2022/05/15 10:11:55;;;;;;;31.73;6.95;;;;;;;26.68;33.54;101559.47;4999207;28;20050;-79
2022/05/15 10:14:32;;;;;;;25.50;6.57;;;;;;;26.69;35.64;101558.38;4998203;28;20026;-80
2022/05/15 10:17:01;;;;;;;35.90;8.52;;;;;;;26.95;34.30;101546.31;5001637;28;20057;-79
2022/05/15 10:19:39;;;;;;;37.83;8.43;;;;;;;26.75;35.31;101545.44;5002311;28;20026;-79
2022/05/15 10:22:32;;;;;;;29.50;8.07;;;;;;;26.49;34.31;101535.81;4997367;28;20471;-78
2022/05/15 10:25:04;;;;;;;;;;;;;;;26.98;34.05;101544.19;4997439;28;20026;-78
2022/05/15 10:27:32;;;;;;;31.50;7.50;;;;;;;26.51;34.27;101538.41;4996193;28;19961;-77
2022/05/15 10:30:05;;;;;;;33.60;7.70;;;;;;;26.49;36.39;101540.56;4989626;28;20290;-79
2022/05/15 10:32:39;;;;;;;23.90;8.05;;;;;;;26.64;33.26;101543.22;5002616;28;20097;-77
2022/05/15 10:35:07;;;;;;;42.85;7.80;;;;;;;26.94;33.41;101540.91;4969764;28;20057;-78
2022/05/15 10:38:05;;;;;;;30.48;8.15;;;;;;;26.88;33.12;101545.47;4995249;28;20038;-78
2022/05/15 10:40:49;;;;;;;33.42;8.88;;;;;;;26.57;32.88;101540.38;5011984;28;20047;-79
2022/05/15 10:43:29;;;;;;;39.55;8.77;;;;;;;27.27;31.22;101532.53;5005346;28;20042;-78
2022/05/15 10:46:12;;;;;;;39.42;9.48;;;;;;;27.54;31.25;101534.50;4997794;28;20490;-77
2022/05/15 10:48:45;;;;;;;49.95;10.18;;;;;;;26.26;33.39;101536.16;4996255;28;20573;-77
2022/05/15 10:51:32;;;;;;;43.47;9.45;;;;;;;26.32;33.58;101523.22;4999009;28;20570;-79
2022/05/15 10:59:53;;;;;;;33.67;8.02;;;;;;;26.44;31.63;101510.28;4991344;28;20043;-79
2022/05/15 11:02:44;;;;;;;40.33;8.45;;;;;;;26.45;31.67;101503.59;4960244;28;20027;-78
2022/05/15 11:05:30;;;;;;;30.63;7.80;;;;;;;26.85;31.86;101503.72;4991274;28;20041;-79
2022/05/15 11:08:04;;;;;;;47.35;9.10;;;;;;;26.65;31.11;101498.06;4993922;28;20038;-78
2022/05/15 11:10:45;;;;;;;49.83;9.02;;;;;;;26.76;31.27;101494.63;4998090;28;20101;-78
2022/05/15 11:13:19;;;;;;;35.13;9.18;;;;;;;26.08;32.42;101494.59;4996767;28;20077;-78
2022/05/15 11:16:06;;;;;;;34.47;8.18;;;;;;;26.48;31.39;101493.88;4997277;28;20108;-79
2022/05/15 11:19:10;;;;;;;35.28;9.98;;;;;;;26.07;32.14;101486.38;4992452;28;20030;-78
2022/05/15 11:21:43;;;;;;;40.00;8.50;;;;;;;26.45;31.00;101489.56;4994684;28;20049;-78
2022/05/15 11:24:18;;;;;;;37.28;9.30;;;;;;;26.38;32.13;101494.28;5010280;28;20077;-78
2022/05/15 11:26:52;;;;;;;44.72;10.05;;;;;;;25.96;32.75;101485.06;4975803;28;20034;-77
2022/05/15 11:29:20;;;;;;;41.78;9.63;;;;;;;26.70;32.19;101484.25;5007375;28;20034;-77
2022/05/15 11:31:55;;;;;;;49.58;11.07;;;;;;;26.45;32.22;101486.75;4990315;28;20534;-77
2022/05/15 11:34:59;;;;;;;43.78;10.25;;;;;;;26.64;33.92;101471.03;4990510;28;20034;-78
2022/05/15 11:37:50;;;;;;;36.63;9.48;;;;;;;27.27;32.05;101465.03;5010170;28;20030;-78
2022/05/15 11:40:45;;;;;;;35.80;8.77;;;;;;;26.87;32.20;101462.22;4990428;28;20121;-77